Weather observations for the past three days for
Richmond Municipal Airport
Metric (Imperial)
Date Time (edt) Wind (kph) Vis. (km) Weather Sky Cond. Temperature (ºC) Relative Humidity Wind Chill (°C) Heat Index (°C) Pressure Precipitation (cm)
Air Dwpt 6 hour altimeter (cm) sea level (mb) 1 hr 3 hr 6 hr
Max. Min.
09 17:35 SW 35 G 46 16.09 Partly Cloudy and Breezy SCT060 21 12 57% 75.59 0.0
09 17:15 SW 28 16.09 Fair CLR 21 11 53% 75.59 0.0
09 16:55 SW 28 G 41 16.09 Fair CLR 21 12 57% 75.59 0.0
09 16:35 SW 28 G 41 16.09 Fair CLR 21 12 57% 75.59 0.0
09 16:15 SW 22 G 33 16.09 Partly Cloudy SCT038 21 13 60% 75.62 0.0
09 15:55 SW 22 G 41 16.09 Partly Cloudy SCT036 21 13 60% 75.62 0.0
09 15:35 S 28 G 37 16.09 Partly Cloudy SCT036 20 13 64% 75.62 0.0
09 15:15 SW 28 G 35 16.09 Fair CLR 20 13 64% 75.64 0.0
09 14:55 SW 28 G 39 16.09 Fair CLR 20 13 64% 75.67 0.0
09 14:35 SW 24 G 39 16.09 Fair CLR 19 13 68% 75.64 0.0
09 14:15 SW 24 16.09 Fair CLR 19 13 68% 75.67 0.0
09 13:55 SW 28 G 35 16.09 Partly Cloudy SCT030 18 13 73% 75.67 0.0
09 13:35 SW 20 16.09 Partly Cloudy SCT030 18 13 73% 75.67 0.0
09 13:15 SW 24 G 33 16.09 Mostly Cloudy BKN030 18 12 68% 75.69 0.0
09 12:55 SW 24 G 35 16.09 Mostly Cloudy BKN030 18 12 68% 75.69 0.0
09 12:35 SW 28 16.09 Mostly Cloudy BKN030 17 12 73% 75.67 0.0
09 12:15 SW 20 G 31 16.09 Mostly Cloudy BKN028 BKN033 17 12 73% 75.69 0.0
09 11:55 SW 20 G 31 16.09 Mostly Cloudy BKN025 BKN032 17 12 73% 75.67 0.0
09 11:35 SW 20 G 31 16.09 Mostly Cloudy SCT020 BKN025 BKN030 16 12 77% 75.67 0.0
09 11:15 SW 15 16.09 Mostly Cloudy SCT018 BKN025 BKN030 16 13 83% 75.67 0.0
09 10:55 SW 20 16.09 Partly Cloudy SCT018 15 12 82% 75.67 0.0
09 10:35 SW 19 16.09 Partly Cloudy SCT011 15 12 82% 75.67 0.0
09 10:15 SW 17 16.09 Partly Cloudy SCT009 14 12 88% 75.64 0.0
09 09:55 S 15 16.09 Mostly Cloudy BKN009 BKN013 13 12 94% 75.67 0.0
09 09:35 SW 15 16.09 Mostly Cloudy BKN007 13 12 94% 75.67 0.0
09 09:15 SW 13 16.09 Mostly Cloudy BKN005 12 11 94% 75.67 0.0
09 08:55 SW 13 16.09 Overcast OVC005 12 11 94% 75.67 0.0
09 08:35 SW 9 16.09 Overcast OVC003 11 11 100% 75.67 0.0
09 08:15 W 9 16.09 Mostly Cloudy BKN003 11 11 100% 75.67 0.0
09 07:55 Calm 16.09 Partly Cloudy SCT005 SCT070 11 11 100% 75.64 0.0 0.03
09 07:35 W 6 16.09 Partly Cloudy SCT005 SCT070 SCT120 11 10 94% 75.64 0.0 0.03
09 07:15 SW 9 16.09 Mostly Cloudy SCT090 BKN120 11 10 94% 75.62 0.0 0.03
09 06:55 S 17 16.09 Light Drizzle SCT075 BKN100 OVC110 11 11 100% 75.59 0.0 0.03
09 06:35 S 17 16.09 Light Rain SCT032 BKN070 OVC100 11 11 100% 75.62 0.0 0.03
09 06:15 SW 17 16.09 Light Rain SCT028 BKN033 OVC060 11 11 100% 75.64 0.0
09 05:55 SW 20 16.09 Light Rain SCT028 BKN065 OVC090 11 11 100% 75.64 0.0 0.03
09 05:35 SW 19 16.09 Light Rain OVC065 11 11 100% 75.64 0.0 0.03
09 05:15 SW 20 16.09 Light Rain SCT036 BKN065 OVC090 11 11 100% 75.64 0.0
09 04:55 SW 19 16.09 Light Rain SCT036 BKN070 OVC090 11 11 100% 75.64 0.0 0.05
09 04:35 SW 17 11.27 Light Rain SCT020 SCT035 OVC080 11 11 100% 75.64 0.0 0.05
09 04:15 SW 9 16.09 Light Rain SCT012 BKN050 OVC070 11 11 100% 75.67 0.0 0.03
09 03:55 SW 13 11.27 Light Rain SCT011 SCT018 OVC070 11 11 100% 75.69 0.0 0.23
09 03:35 SW 17 16.09 Light Rain SCT055 OVC070 11 11 100% 75.67 0.0 0.18
09 03:15 SW 22 11.27 Rain SCT060 OVC065 11 11 100% 75.69 0.0 0.1
09 02:55 SW 22 11.27 Rain OVC060 11 11 100% 75.72 0.0 0.23
09 02:35 SW 22 11.27 Rain OVC060 11 11 100% 75.74 0.0 0.15
09 02:15 SW 20 11.27 Rain SCT060 OVC070 11 11 100% 75.74 0.0 0.05
09 01:55 S 15 11.27 Rain OVC060 11 11 100% 75.74 0.0 0.23
09 01:35 W 11 11.27 Rain OVC065 11 11 100% 75.77 0.0 0.15
09 01:15 SW 9 11.27 Rain SCT055 OVC065 11 11 100% 75.77 0.0 0.08
09 00:55 SW 9 11.27 Rain SCT046 OVC060 11 11 100% 75.79 0.0 0.2
09 00:35 W 15 11.27 Light Rain SCT046 OVC060 11 11 100% 75.79 0.0 0.13
09 00:15 SW 13 11.27 Rain SCT046 OVC060 11 11 100% 75.79 0.0 0.05
08 23:55 SW 13 11.27 Light Rain SCT048 OVC060 11 11 100% 75.82 0.0 0.1
08 23:35 SW 11 16.09 Light Rain SCT048 OVC065 11 11 100% 75.82 0.0 0.05
08 23:15 W 11 11.27 Light Rain OVC065 11 11 100% 75.84 0.0 0.03
08 22:55 W 13 11.27 Light Rain OVC065 11 11 100% 75.84 0.0 0.15
08 22:35 SW 15 11.27 Light Rain OVC065 11 11 100% 75.84 0.0 0.1
08 22:15 SW 11 11.27 Light Rain OVC055 11 11 100% 75.84 0.0 0.03
08 21:55 W 11 11.27 Light Rain OVC055 11 11 100% 75.82 0.0 0.13
08 21:35 W 15 16.09 Light Rain OVC055 11 11 100% 75.82 0.0 0.08
08 21:15 W 11 16.09 Light Rain OVC065 11 11 100% 75.79 0.0 0.03
08 20:55 W 7 16.09 Rain OVC065 11 11 100% 75.79 0.0 0.05
08 20:35 W 9 16.09 Light Rain OVC065 12 10 88% 75.79 0.0 0.03
08 20:15 W 11 16.09 Light Rain SCT060 BKN075 OVC085 12 10 88% 75.79 0.0
08 19:55 NW 15 16.09 Light Rain BKN070 OVC085 12 10 88% 75.79 0.0
08 19:35 W 17 G 30 16.09 Light Rain BKN060 OVC080 13 9 77% 75.79 0.0
08 19:15 W 13 16.09 Light Rain SCT070 OVC080 14 9 72% 75.77 0.0
08 18:55 SW 19 16.09 Light Rain BKN070 OVC080 15 8 63% 75.77 0.0
08 18:35 SW 15 16.09 Light Rain BKN070 OVC085 15 8 63% 75.77 0.0
08 18:15 SW 13 16.09 Light Drizzle SCT070 OVC095 15 8 63% 75.74 0.0
08 17:55 SW 11 16.09 Overcast SCT070 OVC095 16 8 59% 75.74 0.0
08 17:35 SW 7 16.09 Overcast OVC085 16 8 59% 75.74 0.0
08 17:15 SW 6 16.09 Overcast OVC085 16 8 59% 75.77 0.0
08 16:55 SW 9 16.09 Overcast SCT060 OVC085 16 7 55% 75.77 0.0
08 16:35 SW 13 16.09 Overcast SCT060 OVC085 16 7 55% 75.79 0.0
08 16:15 SW 15 16.09 Overcast OVC085 16 6 52% 75.82 0.0
08 15:55 SW 19 G 30 16.09 Overcast OVC085 16 6 52% 75.84 0.0
08 15:35 SW 20 16.09 Overcast OVC085 16 6 52% 75.84 0.0
08 15:15 SW 19 16.09 Overcast SCT055 OVC085 16 6 52% 75.87 0.0
08 14:55 SW 20 16.09 Overcast SCT055 BKN085 OVC110 16 6 52% 75.9 0.0
08 14:35 SW 31 G 39 16.09 Overcast BKN085 OVC110 17 6 49% 75.9 0.0
08 14:15 SW 28 16.09 Overcast OVC085 17 6 49% 75.92 0.0
08 13:55 SW 28 16.09 Overcast OVC095 17 6 49% 75.95 0.0
08 13:35 SW 26 G 35 16.09 Overcast OVC085 16 6 52% 75.97 0.0
08 13:15 SW 26 G 35 16.09 Overcast OVC085 16 6 52% 76 0.0
08 12:55 SW 26 16.09 Overcast OVC085 15 6 55% 76.02 0.0
08 12:35 SW 30 G 39 16.09 Overcast BKN085 OVC110 16 6 52% 76.02 0.0
08 12:15 SW 30 G 41 16.09 Mostly Cloudy SCT085 BKN110 17 7 52% 76.05 0.0
08 11:55 SW 30 G 37 16.09 Partly Cloudy SCT085 16 7 55% 76.05 0.0
08 11:35 SW 24 G 39 16.09 Partly Cloudy SCT085 16 6 52% 76.05 0.0
08 11:15 W 30 G 39 16.09 Partly Cloudy SCT085 15 6 55% 76.05 0.0
08 10:55 SW 28 G 44 16.09 Fair CLR 15 6 55% 76.07 0.0
08 10:35 SW 28 G 43 16.09 Partly Cloudy SCT090 15 6 55% 76.07 0.0
08 10:15 SW 31 G 44 16.09 Partly Cloudy SCT090 13 5 59% 76.07 0.0
08 09:55 SW 30 G 41 16.09 Fair CLR 13 4 55% 76.1 0.0
08 09:35 SW 28 G 35 16.09 Fair CLR 12 3 54% 76.1 0.0
08 09:15 SW 19 G 30 16.09 Fair CLR 12 4 58% 76.1 0.0
08 08:55 SW 19 16.09 Fair CLR 11 3 58% 76.1 0.0
08 08:35 W 17 16.09 Fair CLR 10 3 62% 8 76.1 0.0
08 08:15 SW 20 16.09 Fair CLR 10 3 62% 8 76.07 0.0
08 07:55 SW 17 16.09 Fair CLR 9 3 66% 7 76.07 0.0
08 07:35 SW 13 16.09 Fair CLR 7 3 76% 5 76.07 0.0
08 07:15 S 11 16.09 Fair CLR 6 3 81% 4 76.07 0.0
08 06:55 SW 15 16.09 Fair CLR 7 3 76% 5 76.05 0.0
08 06:35 SW 15 16.09 Partly Cloudy SCT080 SCT100 7 2 71% 5 76.05 0.0
08 06:15 SW 17 16.09 Overcast SCT080 OVC100 8 3 71% 6 76.05 0.0
08 05:55 SW 13 16.09 Overcast OVC100 8 3 71% 6 76.05 0.0
08 05:35 SW 13 16.09 Overcast OVC100 8 2 66% 6 76.05 0.0
08 05:15 SW 13 16.09 Overcast SCT070 SCT090 OVC110 8 2 66% 6 76.05 0.0
08 04:55 SW 15 16.09 Mostly Cloudy SCT070 SCT090 BKN110 8 2 66% 6 76.07 0.0
08 04:35 SW 15 16.09 Mostly Cloudy BKN100 BKN110 8 2 66% 6 76.05 0.0
08 04:15 SW 19 16.09 Overcast SCT070 OVC110 8 3 71% 5 76.05 0.0
08 03:55 SW 20 16.09 Mostly Cloudy SCT070 BKN110 7 2 71% 4 76.07 0.0
08 03:35 SW 15 16.09 Mostly Cloudy BKN110 7 2 71% 5 76.07 0.0
08 03:15 SW 15 16.09 Mostly Cloudy BKN110 7 2 71% 5 76.05 0.0
08 02:55 SW 15 16.09 Partly Cloudy SCT110 7 2 71% 5 76.07 0.0
08 02:35 SW 15 16.09 Fair CLR 7 2 71% 5 76.1 0.0
08 02:15 SW 15 16.09 Fair CLR 7 2 71% 5 76.07 0.0
08 01:55 SW 15 16.09 Fair CLR 7 2 71% 5 76.1 0.0
08 01:35 SW 15 16.09 Fair CLR 7 2 71% 5 76.1 0.0
08 01:15 SW 15 16.09 Fair CLR 7 2 71% 5 76.1 0.0
08 00:55 SW 17 16.09 Fair CLR 8 2 66% 6 76.1 0.0
08 00:35 SW 17 16.09 Fair CLR 8 2 66% 6 76.1 0.0
08 00:15 SW 17 16.09 Partly Cloudy SCT075 SCT085 8 2 66% 6 76.1 0.0
07 23:55 SW 11 16.09 Mostly Cloudy BKN080 8 3 71% 6 76.1 0.0
07 23:35 SW 13 16.09 Partly Cloudy SCT090 8 3 71% 6 76.1 0.0
07 23:15 SW 11 16.09 Partly Cloudy SCT090 8 3 71% 6 76.1 0.0
07 22:55 SW 11 16.09 Mostly Cloudy BKN090 8 3 71% 6 76.1 0.0
07 22:35 SW 11 16.09 Mostly Cloudy BKN100 9 3 66% 8 76.1 0.0
07 22:15 SW 11 16.09 Mostly Cloudy SCT080 BKN100 9 3 66% 8 76.07 0.0
07 21:55 SW 11 16.09 Overcast SCT080 OVC100 9 4 71% 8 76.1 0.0
07 21:35 SW 7 16.09 Overcast OVC100 10 3 62% 9 76.07 0.0
07 21:15 W 11 16.09 Overcast SCT070 OVC100 11 2 54% 76.07 0.0
07 20:55 W 20 G 26 16.09 Overcast SCT070 OVC090 12 1 47% 76.07 0.0
07 20:35 SW 11 16.09 Overcast SCT070 OVC090 11 2 54% 76.07 0.0
07 20:15 SW 11 16.09 Mostly Cloudy SCT080 BKN110 11 3 58% 76.07 0.0
07 19:55 SW 9 16.09 Partly Cloudy SCT085 12 2 51% 76.05 0.0
07 19:35 SW 17 16.09 Mostly Cloudy SCT070 BKN085 12 1 47% 76.05 0.0
07 19:15 SW 11 16.09 Mostly Cloudy BKN070 BKN085 13 1 44% 76.07 0.0
07 18:55 SW 15 16.09 Partly Cloudy SCT070 SCT080 13 1 44% 76.07 0.0
07 18:35 SW 15 16.09 Mostly Cloudy BKN070 BKN080 13 1 44% 76.07 0.0
07 18:15 W 9 16.09 Partly Cloudy SCT070 SCT080 13 0 41% 76.07 0.0
07 17:55 SW 13 16.09 Partly Cloudy SCT070 SCT080 14 0 39% 76.07 0.0
07 17:35 NW 7 16.09 Mostly Cloudy BKN070 BKN080 14 1 41% 76.07 0.0
07 17:15 W 13 16.09 Mostly Cloudy SCT065 BKN080 13 0 41% 76.1 0.0
07 16:35 NW 22 G 37 16.09 Mostly Cloudy BKN065 14 0 39% 76.1 0.0
07 16:15 W 13 G 20 16.09 Partly Cloudy SCT065 12 0 44% 76.1 0.0
07 15:55 W 9 16.09 Partly Cloudy SCT065 13 0 41% 76.1 0.0
07 15:35 W 11 16.09 Partly Cloudy SCT065 13 1 44% 76.1 0.0
07 15:15 NW 13 16.09 Partly Cloudy SCT065 13 0 41% 76.1 0.0
07 14:55 N 24 G 31 16.09 Mostly Cloudy BKN065 13 0 41% 76.12 0.0
07 14:15 NW 26 G 37 16.09 Partly Cloudy SCT060 13 1 44% 76.15 0.0
07 13:55 NW 22 G 33 16.09 Partly Cloudy SCT060 13 1 44% 76.15 0.0
07 13:35 W 26 G 39 16.09 Fair CLR 12 0 44% 76.17 0.0
07 13:15 W 20 G 35 16.09 Fair CLR 12 0 44% 76.2 0.0
07 12:55 W 20 16.09 Fair CLR 12 0 44% 76.2 0.0
07 12:35 NW 19 G 41 16.09 Fair CLR 11 0 47% 76.2 0.0
07 12:15 W 22 G 41 16.09 Fair CLR 11 0 47% 76.2 0.0
07 11:55 NW 15 G 37 16.09 Fair CLR 11 0 47% 76.2 0.0
07 11:35 NW 19 G 28 16.09 Fair CLR 10 0 50% 8 76.2 0.0
07 11:15 NW 19 G 30 16.09 Fair CLR 10 0 50% 8 76.2 0.0
07 10:55 W 24 16.09 Fair CLR 9 0 54% 6 76.2 0.0
07 10:35 W 20 G 30 16.09 Fair CLR 9 0 54% 6 76.2 0.0
07 10:15 W 20 G 28 16.09 Fair CLR 8 0 57% 5 76.2 0.0
07 09:55 W 13 16.09 Fair CLR 8 1 62% 6 76.23 0.0
07 09:35 W 11 16.09 Fair CLR 7 1 66% 5 76.23 0.0
07 09:15 NW 11 16.09 Fair CLR 6 0 66% 4 76.2 0.0
07 08:55 W 9 16.09 Fair CLR 7 1 66% 5 76.2 0.0
07 08:35 W 9 16.09 Fair CLR 6 1 71% 4 76.2 0.0
07 08:15 W 9 16.09 Fair CLR 5 1 76% 3 76.2 0.0
07 07:55 W 6 16.09 Fair CLR 4 1 81% 76.2 0.0
07 07:35 W 6 16.09 Fair CLR 3 1 87% 76.2 0.0
07 07:15 W 6 16.09 Fair CLR 2 1 93% 76.17 0.0
07 06:55 W 6 16.09 Fair CLR 2 1 93% 76.17 0.0
07 06:35 W 6 16.09 Fair CLR 2 0 87% 76.17 0.0
07 06:15 W 6 16.09 Fair CLR 2 1 93% 76.15 0.0
07 05:55 W 7 16.09 Fair CLR 2 1 93% 0 76.15 0.0
07 05:35 W 7 16.09 Fair CLR 2 1 93% 0 76.17 0.0
07 05:15 W 7 16.09 Fair CLR 3 1 87% 1 76.15 0.0
07 04:55 W 7 16.09 Fair CLR 3 1 87% 1 76.15 0.0
07 04:35 W 7 16.09 Fair CLR 3 2 93% 1 76.12 0.0
07 04:15 W 7 16.09 Fair CLR 3 2 93% 1 76.12 0.0
07 03:55 W 7 16.09 Fair CLR 4 2 87% 2 76.12 0.0
07 03:35 W 7 16.09 Fair CLR 4 2 87% 2 76.15 0.0
07 03:15 W 9 16.09 Fair CLR 4 2 87% 2 76.15 0.0
07 02:55 W 9 16.09 Fair CLR 5 2 81% 3 76.15 0.0
07 02:35 W 6 16.09 Fair CLR 5 2 81% 76.15 0.0
07 02:15 W 6 16.09 Fair CLR 6 3 81% 76.17 0.0
07 01:55 W 6 16.09 Fair CLR 6 3 81% 76.15 0.0
07 01:35 W 6 16.09 Fair CLR 6 3 81% 76.15 0.0
07 01:15 Calm 16.09 Fair CLR 6 3 81% 76.15 0.0
07 00:55 SW 6 16.09 Fair CLR 6 4 87% 76.17 0.0
07 00:35 Calm 16.09 Fair CLR 7 4 81% 76.15 0.0
07 00:15 Calm 16.09 Fair CLR 7 5 87% 76.15 0.0
06 23:55 Calm 16.09 Fair CLR 7 5 87% 76.15 0.0
06 23:35 Calm 16.09 Fair CLR 7 5 87% 76.15 0.0
06 23:15 Calm 16.09 Fair CLR 8 4 76% 76.15 0.0
06 22:55 Calm 16.09 Fair CLR 8 5 82% 76.15 0.0
06 22:35 W 6 16.09 Partly Cloudy SCT060 9 5 76% 76.15 0.0
06 22:15 NW 6 16.09 Mostly Cloudy BKN050 9 6 82% 76.15 0.0
06 21:55 W 6 16.09 Overcast BKN050 OVC055 10 6 76% 76.12 0.0
06 21:35 Calm 16.09 Overcast SCT049 OVC055 10 7 82% 76.1 0.0
06 21:15 Calm 16.09 Overcast SCT049 OVC055 10 6 76% 76.1 0.0
06 20:55 Calm 16.09 Mostly Cloudy SCT049 BKN055 10 6 76% 76.1 0.0
06 20:35 Calm 16.09 Partly Cloudy SCT065 SCT080 10 5 71% 76.07 0.0
06 20:15 NW 6 16.09 Overcast OVC080 11 4 62% 76.05 0.0
06 19:55 NW 6 16.09 Overcast SCT045 SCT060 OVC080 11 4 62% 76.05 0.0
06 19:35 NW 7 16.09 Overcast BKN047 BKN060 OVC080 12 4 58% 76.05 0.0
06 19:15 NW 11 16.09 Overcast BKN049 BKN060 OVC080 11 4 62% 76.05 0.0
06 18:55 NW 11 16.09 Overcast OVC060 11 3 58% 76.07 0.0
06 18:35 NW 13 16.09 Overcast SCT047 BKN060 OVC080 12 3 54% 76.1 0.0
06 18:15 W 9 16.09 Overcast OVC050 12 3 54% 76.07 0.0
06 17:55 W 13 16.09 Overcast SCT048 BKN055 OVC085 12 3 54% 76.07 0.0
Date Time (edt) Wind (kph) Vis. (km) Weather Sky Cond. Air Dwpt Max. Min. Relative Humidity Wind Chill (°C) Heat Index (°C) altimeter (cm) sea level (mb) 1 hr 3 hr 6 hr
6 hour
Temperature (ºC) Pressure Precipitation (cm)